Time;durP1;ratioP1;P1;durP2;ratioP2;P2;SDS_P1;SDS_P2;PMS_P1;PMS_P2;Temp;Humidity;BMP_temperature;BMP_pressure;BME280_temperature;BME280_humidity;BME280_pressure;Samples;Min_cycle;Max_cycle;Signal;HPM_P1;HPM_P2
2023/06/17 00:00:08;;;;;;;1.40;1.40;;;;;;;17.90;100.00;93980.06;5089056;28;20181;-44
2023/06/17 00:02:35;;;;;;;1.50;1.40;;;;;;;17.86;100.00;93976.28;5078464;28;20994;-45
2023/06/17 00:05:02;;;;;;;1.60;1.40;;;;;;;17.83;100.00;93979.28;5069034;28;20727;-47
2023/06/17 00:07:29;;;;;;;1.63;1.53;;;;;;;17.86;100.00;93978.09;5069148;28;20203;-44
2023/06/17 00:09:57;;;;;;;1.80;1.70;;;;;;;17.85;100.00;93973.91;5069051;28;20273;-47
2023/06/17 00:12:25;;;;;;;1.77;1.67;;;;;;;17.84;100.00;93972.34;5076758;28;20243;-46
2023/06/17 00:14:53;;;;;;;2.40;1.57;;;;;;;17.82;100.00;93963.97;5090897;28;20280;-46
2023/06/17 00:17:21;;;;;;;3.97;1.60;;;;;;;17.79;100.00;93976.31;5094483;28;20208;-47
2023/06/17 00:19:48;;;;;;;1.77;1.37;;;;;;;17.75;100.00;93971.75;5088918;28;20665;-44
2023/06/17 00:22:15;;;;;;;1.77;1.67;;;;;;;17.72;100.00;93967.72;5089487;28;20269;-46
2023/06/17 00:24:41;;;;;;;3.07;1.40;;;;;;;17.74;100.00;93963.16;5089250;28;20186;-45
2023/06/17 00:27:10;;;;;;;1.70;1.60;;;;;;;17.75;100.00;93949.25;5088902;28;20190;-44
2023/06/17 00:29:37;;;;;;;2.63;1.53;;;;;;;17.64;100.00;93942.06;5090515;28;20194;-45
2023/06/17 00:32:04;;;;;;;1.80;1.70;;;;;;;17.73;100.00;93953.78;5092683;28;20197;-45
2023/06/17 00:34:31;;;;;;;4.13;1.50;;;;;;;17.70;100.00;93961.97;5092606;28;20221;-45
2023/06/17 00:36:57;;;;;;;2.13;1.70;;;;;;;17.69;100.00;93962.13;5092936;28;20236;-45
2023/06/17 00:39:24;;;;;;;1.90;1.70;;;;;;;17.64;100.00;93962.75;5092947;28;20193;-47
2023/06/17 00:41:51;;;;;;;2.10;1.50;;;;;;;17.61;100.00;93965.72;5093488;28;20190;-46
2023/06/17 00:44:19;;;;;;;2.07;1.97;;;;;;;17.61;100.00;93963.13;5092788;28;20203;-46
2023/06/17 00:46:50;;;;;;;2.77;1.63;;;;;;;17.46;100.00;93940.06;5092613;28;20338;-46
2023/06/17 00:49:17;;;;;;;3.00;1.90;;;;;;;17.61;100.00;93955.38;5092404;28;20236;-45
2023/06/17 00:51:45;;;;;;;2.23;1.80;;;;;;;17.53;100.00;93951.22;5092144;28;20641;-46
2023/06/17 00:54:15;;;;;;;2.60;2.40;;;;;;;17.62;100.00;93959.56;5092692;28;20569;-45
2023/06/17 00:56:43;;;;;;;2.17;2.07;;;;;;;17.56;100.00;93950.00;5091792;28;20186;-45
2023/06/17 00:59:10;;;;;;;2.17;2.00;;;;;;;17.55;100.00;93951.81;5092185;28;20186;-45
2023/06/17 01:01:39;;;;;;;2.57;1.83;;;;;;;17.44;100.00;93944.66;5092226;28;20258;-45
2023/06/17 01:04:06;;;;;;;2.43;1.80;;;;;;;17.29;100.00;93926.72;5092528;28;20193;-46
2023/06/17 01:06:52;;;;;;;2.27;2.07;;;;;;;17.43;100.00;93943.03;5092388;28;20197;-47
2023/06/17 01:09:24;;;;;;;3.17;1.90;;;;;;;17.42;100.00;93949.22;5094022;28;20273;-46
2023/06/17 01:11:54;;;;;;;3.80;2.10;;;;;;;17.40;100.00;93945.22;5095742;28;20554;-44
2023/06/17 01:14:21;;;;;;;2.50;2.23;;;;;;;17.40;100.00;93951.22;5094860;28;20225;-44
2023/06/17 01:16:54;;;;;;;2.50;2.20;;;;;;;17.41;100.00;93944.25;5092100;28;20271;-44
2023/06/17 01:19:24;;;;;;;3.17;2.10;;;;;;;17.38;100.00;93945.44;5092205;28;20270;-43
2023/06/17 01:21:53;;;;;;;2.63;2.10;;;;;;;17.33;100.00;93940.06;5091404;28;20197;-45
2023/06/17 01:24:27;;;;;;;2.30;2.20;;;;;;;17.38;100.00;93944.63;5091775;28;20189;-45
2023/06/17 01:26:56;;;;;;;2.33;1.90;;;;;;;17.39;100.00;93948.81;5091279;28;20300;-45
2023/06/17 01:29:26;;;;;;;4.80;2.60;;;;;;;17.36;100.00;93947.44;5092527;28;20640;-46
2023/06/17 01:31:56;;;;;;;4.63;2.40;;;;;;;17.39;100.00;93953.97;5086846;28;20239;-47
2023/06/17 01:34:30;;;;;;;5.73;2.33;;;;;;;17.37;100.00;93946.44;5091764;28;20244;-45
2023/06/17 01:36:58;;;;;;;3.30;2.43;;;;;;;17.21;100.00;93916.59;5091205;28;20189;-45
2023/06/17 01:39:27;;;;;;;2.50;2.30;;;;;;;17.44;100.00;93936.91;5091334;28;20200;-45
2023/06/17 01:41:58;;;;;;;8.43;2.23;;;;;;;17.44;100.00;93941.25;5090656;28;20250;-46
2023/06/17 01:44:27;;;;;;;2.27;2.07;;;;;;;17.44;100.00;93941.25;5091424;28;20243;-46
2023/06/17 01:46:54;;;;;;;2.83;2.00;;;;;;;17.43;100.00;93939.66;5091130;28;20190;-46
2023/06/17 01:49:21;;;;;;;2.30;2.20;;;;;;;17.44;100.00;93938.66;5091412;28;20185;-45
2023/06/17 01:51:48;;;;;;;2.23;2.10;;;;;;;17.41;100.00;93939.06;5090492;28;20576;-45
2023/06/17 01:54:15;;;;;;;3.73;2.00;;;;;;;17.41;100.00;93939.06;5091385;28;20232;-44
2023/06/17 01:56:43;;;;;;;3.33;2.77;;;;;;;17.37;100.00;93933.50;5091935;28;20194;-46
2023/06/17 01:59:10;;;;;;;4.60;2.23;;;;;;;17.40;100.00;93930.53;5091985;28;20292;-46
2023/06/17 02:01:36;;;;;;;2.73;2.17;;;;;;;17.23;100.00;93908.66;5091133;28;20610;-45
2023/06/17 02:04:03;;;;;;;4.63;2.60;;;;;;;17.34;100.00;93935.69;5090773;28;20259;-46
2023/06/17 02:06:30;;;;;;;2.50;2.20;;;;;;;17.30;100.00;93927.53;5090812;28;20181;-47
2023/06/17 02:08:57;;;;;;;2.60;2.37;;;;;;;17.28;100.00;93932.91;5091094;28;20193;-44
2023/06/17 02:11:25;;;;;;;3.20;2.33;;;;;;;17.28;100.00;93934.69;5090686;28;20334;-46
2023/06/17 02:13:53;;;;;;;2.13;2.03;;;;;;;17.23;100.00;93930.13;5091389;28;20221;-46
2023/06/17 02:16:20;;;;;;;2.40;2.03;;;;;;;17.21;100.00;93924.34;5091562;28;20197;-47
2023/06/17 02:18:48;;;;;;;2.33;2.13;;;;;;;17.24;100.00;93934.28;5095587;28;20574;-46
2023/06/17 02:21:15;;;;;;;2.43;2.20;;;;;;;17.21;100.00;93939.84;5091593;28;20235;-46
2023/06/17 02:23:42;;;;;;;2.70;2.10;;;;;;;17.22;100.00;93938.84;5090459;28;20237;-45
2023/06/17 02:26:08;;;;;;;2.70;2.50;;;;;;;16.97;100.00;93906.84;5090870;28;20217;-46
2023/06/17 02:28:35;;;;;;;2.57;2.33;;;;;;;17.19;100.00;93930.72;5090563;28;20224;-45
2023/06/17 02:31:03;;;;;;;3.23;2.50;;;;;;;17.18;100.00;93947.19;5090578;28;20182;-48
2023/06/17 02:33:33;;;;;;;3.23;2.07;;;;;;;17.16;100.00;93939.63;5090071;28;20231;-45
2023/06/17 02:36:00;;;;;;;2.60;2.13;;;;;;;17.00;100.00;93907.22;5090449;28;20213;-46
2023/06/17 02:38:28;;;;;;;2.43;2.23;;;;;;;17.22;100.00;93941.41;5090417;28;20194;-47
2023/06/17 02:40:55;;;;;;;3.63;2.27;;;;;;;17.16;100.00;93944.00;5090369;28;20186;-46
2023/06/17 02:43:22;;;;;;;3.30;2.20;;;;;;;17.16;100.00;93944.00;5090082;28;20190;-46
2023/06/17 02:45:48;;;;;;;2.20;2.00;;;;;;;17.13;100.00;93937.44;5090402;28;20185;-46
2023/06/17 02:48:17;;;;;;;2.60;2.40;;;;;;;16.98;100.00;93923.91;5090045;28;20784;-47
2023/06/17 02:50:44;;;;;;;2.40;2.20;;;;;;;17.02;100.00;93936.25;5090488;28;20197;-46
2023/06/17 02:53:10;;;;;;;2.50;1.80;;;;;;;17.01;100.00;93944.97;5089556;28;20199;-45
2023/06/17 02:55:37;;;;;;;2.20;2.10;;;;;;;17.07;100.00;93947.78;5089820;28;20212;-47
2023/06/17 02:58:04;;;;;;;1.97;1.87;;;;;;;17.05;100.00;93945.38;5090044;28;20186;-46
2023/06/17 03:00:32;;;;;;;3.77;2.10;;;;;;;17.01;100.00;93944.97;5089254;28;20247;-45
2023/06/17 03:02:59;;;;;;;1.90;1.80;;;;;;;17.05;100.00;93950.53;5091637;28;20189;-45
2023/06/17 03:05:30;;;;;;;2.00;1.90;;;;;;;17.03;100.00;93947.38;5089343;28;20218;-45
2023/06/17 03:07:56;;;;;;;2.20;2.00;;;;;;;17.05;100.00;93953.94;5090488;28;20261;-46
2023/06/17 03:10:23;;;;;;;2.27;2.07;;;;;;;17.02;100.00;93954.31;5089677;28;20197;-45
2023/06/17 03:12:50;;;;;;;8.80;2.40;;;;;;;17.01;100.00;93954.50;5089826;28;20273;-46
2023/06/17 03:15:18;;;;;;;2.20;2.10;;;;;;;16.91;100.00;93939.38;5089550;28;20210;-46
2023/06/17 03:17:45;;;;;;;2.30;2.20;;;;;;;17.01;100.00;93964.84;5090052;28;20216;-45
2023/06/17 03:20:12;;;;;;;2.60;2.20;;;;;;;16.64;100.00;93904.13;5089223;28;20731;-45
2023/06/17 03:22:41;;;;;;;2.33;2.17;;;;;;;17.00;100.00;93963.25;5090041;28;20200;-46
2023/06/17 03:25:08;;;;;;;2.67;2.00;;;;;;;16.80;100.00;93929.63;5089415;28;20231;-46
2023/06/17 03:27:35;;;;;;;2.10;2.00;;;;;;;17.04;100.00;93970.41;5089472;28;20664;-43
2023/06/17 03:30:03;;;;;;;2.13;1.93;;;;;;;17.08;100.00;93967.44;5069378;28;20707;-44
2023/06/17 03:32:30;;;;;;;1.97;1.87;;;;;;;17.08;100.00;93962.28;5069453;28;20833;-46
2023/06/17 03:34:57;;;;;;;2.60;2.40;;;;;;;17.07;100.00;93971.03;5085784;28;20229;-46
2023/06/17 03:37:24;;;;;;;8.50;2.63;;;;;;;17.08;100.00;93967.44;5089649;28;20197;-45
2023/06/17 03:39:53;;;;;;;3.73;2.50;;;;;;;16.87;100.00;93945.91;5090650;28;20212;-44
2023/06/17 03:42:19;;;;;;;2.70;2.50;;;;;;;17.02;100.00;93972.41;5089605;28;20208;-47
2023/06/17 03:44:46;;;;;;;3.07;2.43;;;;;;;16.99;100.00;93959.88;5089604;28;20189;-46
2023/06/17 03:47:13;;;;;;;3.37;2.60;;;;;;;17.05;100.00;93973.78;5089544;28;20193;-45
2023/06/17 03:49:40;;;;;;;2.77;2.57;;;;;;;16.99;100.00;93970.19;5089720;28;20194;-46
2023/06/17 03:52:08;;;;;;;2.67;2.47;;;;;;;16.98;100.00;93978.94;5089322;28;20189;-45
2023/06/17 03:54:34;;;;;;;2.60;2.43;;;;;;;16.98;100.00;93985.91;5089009;28;20672;-45
2023/06/17 03:57:03;;;;;;;2.33;2.13;;;;;;;16.82;100.00;93960.41;5089328;28;20192;-46
2023/06/17 03:59:29;;;;;;;2.63;2.40;;;;;;;16.80;100.00;93958.03;5089582;28;20269;-45
2023/06/17 04:01:56;;;;;;;2.20;2.10;;;;;;;16.93;100.00;93991.66;5089489;28;20185;-46
2023/06/17 04:04:24;;;;;;;2.03;1.93;;;;;;;16.93;100.00;93985.69;5092616;28;20190;-45
2023/06/17 04:06:51;;;;;;;2.40;2.30;;;;;;;16.93;100.00;93996.81;5092856;28;20181;-46
2023/06/17 04:09:18;;;;;;;2.40;2.20;;;;;;;16.89;100.00;93985.28;5093426;28;20190;-44
2023/06/17 04:11:45;;;;;;;5.30;2.17;;;;;;;16.93;100.00;93996.03;5093694;28;20193;-46
2023/06/17 04:14:13;;;;;;;3.13;2.30;;;;;;;16.93;100.00;94001.97;5093377;28;20208;-46
2023/06/17 04:16:41;;;;;;;2.10;1.80;;;;;;;16.93;100.00;93996.81;5093369;28;20563;-44
2023/06/17 04:19:09;;;;;;;2.03;1.67;;;;;;;16.95;100.00;94000.00;5093843;28;20638;-47
2023/06/17 04:21:36;;;;;;;2.37;2.07;;;;;;;16.93;100.00;94001.97;5099530;28;20648;-46
2023/06/17 04:24:03;;;;;;;1.80;1.70;;;;;;;16.92;100.00;94002.94;5093414;28;20568;-45
2023/06/17 04:26:30;;;;;;;1.77;1.67;;;;;;;16.90;100.00;94012.69;5092799;28;20624;-46
2023/06/17 04:28:56;;;;;;;1.87;1.77;;;;;;;16.77;100.00;93990.19;5092791;28;20668;-44
2023/06/17 04:31:25;;;;;;;1.83;1.73;;;;;;;16.90;100.00;94006.72;5092933;28;20668;-47
2023/06/17 04:33:52;;;;;;;3.67;1.80;;;;;;;16.90;100.00;94014.47;5092602;28;20520;-45
2023/06/17 04:36:19;;;;;;;1.57;1.47;;;;;;;16.89;100.00;94013.69;5093915;28;20182;-45
2023/06/17 04:38:47;;;;;;;1.93;1.50;;;;;;;16.88;100.00;94009.53;5092936;28;20649;-46
2023/06/17 04:41:14;;;;;;;1.70;1.60;;;;;;;16.94;100.00;94020.84;5092740;28;20193;-48
2023/06/17 04:43:41;;;;;;;1.90;1.80;;;;;;;16.91;100.00;94016.84;5092337;28;20196;-46
2023/06/17 04:46:08;;;;;;;1.50;1.50;;;;;;;16.92;100.00;94015.06;5092459;28;20205;-46
2023/06/17 04:48:37;;;;;;;1.50;1.40;;;;;;;16.96;100.00;94014.50;5093180;28;20194;-46
2023/06/17 04:51:05;;;;;;;3.93;1.70;;;;;;;16.97;100.00;94020.47;5092674;28;20637;-46
2023/06/17 04:53:32;;;;;;;3.33;1.80;;;;;;;16.99;100.00;94021.06;5092506;28;20225;-46
2023/06/17 04:55:59;;;;;;;2.57;1.60;;;;;;;16.96;100.00;94009.31;5092492;28;20225;-45
2023/06/17 04:58:25;;;;;;;2.00;1.70;;;;;;;16.96;100.00;94017.06;5092782;28;20186;-45
2023/06/17 05:00:52;;;;;;;2.17;1.80;;;;;;;17.02;100.00;94025.84;5092103;28;20661;-48
2023/06/17 05:03:19;;;;;;;3.30;1.67;;;;;;;17.02;100.00;94020.69;5092722;28;20216;-45
2023/06/17 05:05:47;;;;;;;4.43;1.87;;;;;;;17.04;100.00;94023.88;5091990;28;20676;-44
2023/06/17 05:08:14;;;;;;;4.73;1.63;;;;;;;17.08;100.00;94019.91;5092405;28;20189;-46
2023/06/17 05:10:41;;;;;;;2.07;1.57;;;;;;;17.11;100.00;94024.69;5092473;28;20208;-46
2023/06/17 05:13:08;;;;;;;1.67;1.57;;;;;;;17.02;100.00;94000.81;5092045;28;20197;-47
2023/06/17 05:15:35;;;;;;;1.70;1.60;;;;;;;17.12;100.00;94028.84;5081566;28;20222;-47
2023/06/17 05:18:01;;;;;;;1.90;1.80;;;;;;;17.11;100.00;94022.09;5069890;28;20207;-47
2023/06/17 05:20:28;;;;;;;5.67;1.90;;;;;;;17.09;100.00;94023.28;5069284;28;20193;-45
2023/06/17 05:22:56;;;;;;;2.53;1.50;;;;;;;17.05;100.00;94020.28;5082653;28;20190;-45
2023/06/17 05:25:23;;;;;;;1.50;1.30;;;;;;;17.07;100.00;94025.28;5089560;28;20217;-45
2023/06/17 05:27:50;;;;;;;1.60;1.50;;;;;;;17.05;100.00;94036.59;5088512;28;20303;-45
2023/06/17 05:30:17;;;;;;;1.63;1.50;;;;;;;17.05;100.00;94033.19;5089359;28;20182;-46
2023/06/17 05:32:44;;;;;;;1.67;1.53;;;;;;;17.02;100.00;94039.56;5088995;28;20200;-46
2023/06/17 05:35:10;;;;;;;1.67;1.57;;;;;;;17.03;100.00;94043.72;5089121;28;20233;-44
2023/06/17 05:37:37;;;;;;;2.47;1.57;;;;;;;16.88;100.00;94027.59;5089310;28;20209;-47
2023/06/17 05:40:06;;;;;;;1.87;1.77;;;;;;;17.01;100.00;94047.50;5089186;28;20684;-45
2023/06/17 05:42:33;;;;;;;2.40;1.80;;;;;;;16.86;100.00;94021.03;5088423;28;20925;-46
2023/06/17 05:45:00;;;;;;;4.40;1.80;;;;;;;16.99;100.00;94039.94;5089088;28;20632;-45
2023/06/17 05:47:27;;;;;;;2.67;1.97;;;;;;;17.01;100.00;94039.75;5089014;28;20190;-44
2023/06/17 05:49:54;;;;;;;2.40;2.20;;;;;;;17.03;100.00;94040.34;5089474;28;20192;-46
2023/06/17 05:52:20;;;;;;;5.93;2.37;;;;;;;17.06;100.00;94037.41;5088436;28;20186;-43
2023/06/17 05:54:47;;;;;;;2.07;1.70;;;;;;;17.08;100.00;94038.00;5088945;28;20224;-47
2023/06/17 05:57:15;;;;;;;2.00;1.80;;;;;;;17.10;100.00;94033.44;5088510;28;20235;-46
2023/06/17 05:59:42;;;;;;;2.73;1.80;;;;;;;17.12;100.00;94038.41;5088919;28;20199;-45
2023/06/17 06:02:09;;;;;;;1.73;1.63;;;;;;;17.11;100.00;94039.41;5088686;28;20194;-46
2023/06/17 06:04:35;;;;;;;3.03;1.70;;;;;;;17.11;100.00;94029.84;5088553;28;20270;-47
2023/06/17 06:07:02;;;;;;;4.23;2.07;;;;;;;17.13;100.00;94035.63;5088835;28;20190;-44
2023/06/17 06:09:29;;;;;;;1.70;1.60;;;;;;;17.13;100.00;94029.66;5088515;28;20251;-47
2023/06/17 06:11:56;;;;;;;1.57;1.47;;;;;;;17.14;100.00;94036.41;5089655;28;20194;-49
2023/06/17 06:14:24;;;;;;;1.80;1.70;;;;;;;17.16;100.00;94031.84;5088231;28;20193;-47
2023/06/17 06:16:51;;;;;;;1.73;1.63;;;;;;;17.16;100.00;94030.06;5088434;28;20204;-45
2023/06/17 06:19:17;;;;;;;1.60;1.50;;;;;;;17.10;100.00;94017.94;5088376;28;20181;-45
2023/06/17 06:21:44;;;;;;;1.83;1.70;;;;;;;17.21;100.00;94037.22;5088819;28;20190;-45
2023/06/17 06:24:11;;;;;;;2.37;1.50;;;;;;;17.23;100.00;94043.81;5091148;28;20247;-44
2023/06/17 06:26:37;;;;;;;3.13;1.80;;;;;;;16.93;100.00;93999.41;5086756;28;20237;-45
2023/06/17 06:29:04;;;;;;;1.40;1.40;;;;;;;17.27;100.00;94047.59;5086304;28;20204;-45
2023/06/17 06:31:32;;;;;;;1.57;1.47;;;;;;;17.27;100.00;94057.94;5088327;28;20245;-45
2023/06/17 06:33:59;;;;;;;1.70;1.60;;;;;;;17.29;100.00;94058.53;5086890;28;20208;-45
2023/06/17 06:36:26;;;;;;;1.50;1.40;;;;;;;16.86;100.00;93984.88;5086955;28;20209;-46
2023/06/17 06:38:53;;;;;;;4.30;1.53;;;;;;;17.35;100.00;94058.75;5086934;28;20588;-44
2023/06/17 06:41:20;;;;;;;1.90;1.50;;;;;;;17.40;100.00;94064.13;5086555;28;20640;-44
2023/06/17 06:43:46;;;;;;;1.70;1.60;;;;;;;17.41;100.00;94063.16;5086703;28;20204;-45
2023/06/17 06:46:13;;;;;;;1.77;1.60;;;;;;;17.43;100.00;94058.56;5086796;28;20197;-44
2023/06/17 06:48:41;;;;;;;2.50;1.70;;;;;;;17.44;100.00;94058.38;5086718;28;20186;-46
2023/06/17 06:51:08;;;;;;;2.10;1.60;;;;;;;17.43;100.00;94066.31;5086226;28;20205;-45
2023/06/17 06:53:35;;;;;;;2.17;1.70;;;;;;;17.45;100.00;94059.19;5086961;28;20258;-44
2023/06/17 06:56:02;;;;;;;1.87;1.77;;;;;;;17.56;100.00;94066.34;5086181;28;20962;-44
2023/06/17 06:58:28;;;;;;;1.70;1.50;;;;;;;17.56;100.00;94061.97;5086210;28;20198;-45
2023/06/17 07:00:55;;;;;;;4.00;1.60;;;;;;;17.56;100.00;94054.22;5086268;28;20193;-45
2023/06/17 07:03:22;;;;;;;1.57;1.47;;;;;;;17.62;100.00;94057.81;5085930;28;20189;-45
2023/06/17 07:05:50;;;;;;;1.57;1.47;;;;;;;17.70;100.00;94055.06;5086177;28;20197;-46
2023/06/17 07:08:17;;;;;;;1.70;1.60;;;;;;;17.63;100.00;94036.13;5085986;28;20190;-46
2023/06/17 07:10:44;;;;;;;1.70;1.60;;;;;;;17.79;100.00;94056.50;5086293;28;20205;-43
2023/06/17 07:13:10;;;;;;;2.80;1.90;;;;;;;17.82;100.00;94049.31;5086413;28;20201;-44
2023/06/17 07:15:37;;;;;;;1.70;1.60;;;;;;;17.88;100.00;94049.34;5086289;28;20214;-44
2023/06/17 07:18:04;;;;;;;1.53;1.43;;;;;;;17.91;100.00;94051.50;5086547;28;20194;-44
2023/06/17 07:20:31;;;;;;;1.50;1.40;;;;;;;17.94;100.00;94051.13;5086622;28;20209;-45
2023/06/17 07:22:59;;;;;;;3.17;1.60;;;;;;;17.98;100.00;94052.31;5086335;28;20216;-46
2023/06/17 07:25:26;;;;;;;1.70;1.60;;;;;;;17.97;100.00;94049.94;5082949;28;20222;-45
2023/06/17 07:27:56;;;;;;;1.63;1.53;;;;;;;18.04;100.00;94053.28;5085789;28;20284;-45
2023/06/17 07:30:23;;;;;;;2.13;1.47;;;;;;;18.11;100.00;94058.50;5085399;28;20661;-46
2023/06/17 07:32:50;;;;;;;1.70;1.57;;;;;;;18.17;100.00;94065.44;5086039;28;20668;-44
2023/06/17 07:35:17;;;;;;;1.70;1.60;;;;;;;18.20;100.00;94065.06;5086478;28;20229;-42
2023/06/17 07:37:44;;;;;;;1.50;1.40;;;;;;;18.29;100.00;94062.06;5086328;28;20560;-45
2023/06/17 07:40:13;;;;;;;1.70;1.60;;;;;;;18.36;100.00;94049.13;5084600;28;20205;-46
2023/06/17 07:42:41;;;;;;;1.57;1.53;;;;;;;18.53;100.00;94059.84;5084281;28;20204;-45
2023/06/17 07:45:09;;;;;;;1.20;1.20;;;;;;;18.64;100.00;94061.81;5086448;28;20193;-45
2023/06/17 07:47:36;;;;;;;1.40;1.30;;;;;;;18.70;100.00;94062.84;5086704;28;20189;-47
2023/06/17 07:50:04;;;;;;;2.40;1.30;;;;;;;18.81;100.00;94072.56;5084194;28;20192;-44
2023/06/17 07:52:32;;;;;;;1.43;1.40;;;;;;;18.94;100.00;94074.31;5086369;28;20208;-46
2023/06/17 07:54:59;;;;;;;1.30;1.30;;;;;;;19.08;100.00;94081.03;5083836;28;20216;-42
2023/06/17 07:57:27;;;;;;;2.42;1.67;;;;;;;19.28;100.00;94080.97;5086167;28;20193;-45
2023/06/17 07:59:54;;;;;;;1.88;1.30;;;;;;;19.40;100.00;94073.34;5085809;28;20194;-46
2023/06/17 08:02:21;;;;;;;1.40;1.30;;;;;;;19.54;100.00;94072.28;5086032;28;20197;-44
2023/06/17 08:04:49;;;;;;;1.77;1.40;;;;;;;19.57;100.00;94079.66;5085725;28;20209;-45
2023/06/17 08:07:16;;;;;;;1.50;1.40;;;;;;;19.59;100.00;94074.25;5085935;28;20281;-44
2023/06/17 08:09:43;;;;;;;1.52;1.40;;;;;;;19.63;100.00;94089.22;5086292;28;20258;-46
2023/06/17 08:12:10;;;;;;;2.20;1.40;;;;;;;19.66;100.00;94088.00;5083860;28;20193;-46
2023/06/17 08:14:38;;;;;;;2.33;1.45;;;;;;;19.56;100.00;94070.28;5085793;28;20266;-48
2023/06/17 08:17:05;;;;;;;1.60;1.50;;;;;;;19.55;100.00;94090.22;5084707;28;20209;-47
2023/06/17 08:19:33;;;;;;;1.30;1.30;;;;;;;19.51;100.00;94091.63;5085073;28;20617;-46
2023/06/17 08:22:00;;;;;;;1.38;1.33;;;;;;;19.48;100.00;94093.84;5085944;28;20231;-46
2023/06/17 08:24:27;;;;;;;1.40;1.30;;;;;;;19.17;100.00;94061.69;5085579;28;20193;-46
2023/06/17 08:26:55;;;;;;;1.33;1.33;;;;;;;19.32;100.00;94095.13;5087244;28;20232;-47
2023/06/17 08:29:22;;;;;;;1.45;1.35;;;;;;;19.28;100.00;94097.31;5088393;28;20201;-49
2023/06/17 08:31:51;;;;;;;1.30;1.30;;;;;;;19.27;100.00;94098.31;5088113;28;20297;-46
2023/06/17 08:34:19;;;;;;;1.80;1.70;;;;;;;19.18;100.00;94086.59;5088057;28;20243;-45
2023/06/17 08:36:47;;;;;;;1.60;1.50;;;;;;;19.26;100.00;94101.13;5087735;28;20236;-45
2023/06/17 08:39:14;;;;;;;1.75;1.65;;;;;;;19.29;100.00;94098.91;5088103;28;20217;-47
2023/06/17 08:41:42;;;;;;;1.57;1.47;;;;;;;19.34;100.00;94098.28;5088044;28;20192;-56
2023/06/17 08:44:11;;;;;;;2.00;1.83;;;;;;;19.40;100.00;94096.69;5087919;28;20205;-47
2023/06/17 08:46:38;;;;;;;1.90;1.80;;;;;;;19.47;100.00;94103.44;5087656;28;20403;-47
2023/06/17 08:49:08;;;;;;;2.60;1.60;;;;;;;19.49;100.00;94095.44;5087820;28;20197;-45
2023/06/17 08:51:35;;;;;;;3.47;1.50;;;;;;;19.38;100.00;94068.34;5091080;28;20197;-46
2023/06/17 08:54:04;;;;;;;1.75;1.65;;;;;;;19.54;100.00;94096.41;5092024;28;20307;-47
2023/06/17 08:56:31;;;;;;;3.05;1.75;;;;;;;19.62;100.00;94099.81;5091413;28;20393;-46
2023/06/17 08:58:58;;;;;;;2.45;1.50;;;;;;;19.65;100.00;94099.41;5091594;28;20216;-47
2023/06/17 09:01:27;;;;;;;1.83;1.67;;;;;;;19.67;100.00;94097.38;5091408;28;20575;-47
2023/06/17 09:03:55;;;;;;;6.38;2.15;;;;;;;19.62;100.00;94089.44;5088954;28;20277;-44
2023/06/17 09:06:24;;;;;;;2.85;2.00;;;;;;;19.63;100.00;94097.00;5089886;28;20190;-48
2023/06/17 09:08:52;;;;;;;2.60;2.40;;;;;;;19.54;100.00;94091.22;5092678;28;20221;-46
2023/06/17 09:11:25;;;;;;;4.03;1.95;;;;;;;19.53;100.00;94094.81;5091489;28;20229;-48
2023/06/17 09:13:52;;;;;;;2.10;2.00;;;;;;;19.57;100.00;94081.44;5091373;28;20190;-46
2023/06/17 09:16:24;;;;;;;2.17;2.00;;;;;;;19.56;100.00;94083.25;5091175;28;20214;-46
2023/06/17 09:18:55;;;;;;;2.57;2.37;;;;;;;19.55;100.00;94090.22;5091402;28;20632;-46
2023/06/17 09:21:23;;;;;;;2.20;2.03;;;;;;;19.58;100.00;94088.22;5091357;28;20224;-47
2023/06/17 09:23:55;;;;;;;2.88;2.17;;;;;;;19.58;100.00;94083.03;5091225;28;20193;-48
2023/06/17 09:26:25;;;;;;;3.13;2.23;;;;;;;19.65;100.00;94078.63;5090935;28;20241;-47
2023/06/17 09:28:52;;;;;;;2.03;1.80;;;;;;;19.70;100.00;94082.19;5090685;28;20330;-47
2023/06/17 09:31:19;;;;;;;1.85;1.75;;;;;;;19.83;100.00;94083.91;5089917;28;20212;-48
2023/06/17 09:33:46;;;;;;;2.10;2.00;;;;;;;19.93;100.00;94092.00;5090895;28;20228;-45
2023/06/17 09:36:14;;;;;;;2.05;1.92;;;;;;;20.03;100.00;94078.56;5091161;28;20221;-45
2023/06/17 09:38:42;;;;;;;3.72;1.80;;;;;;;20.36;100.00;94083.50;5091361;28;20194;-47
2023/06/17 09:41:14;;;;;;;2.05;1.92;;;;;;;20.58;98.81;94080.56;5090958;28;20193;-46
2023/06/17 09:43:41;;;;;;;1.80;1.70;;;;;;;20.69;95.45;94070.25;5090807;28;20229;-47
2023/06/17 09:46:10;;;;;;;1.70;1.60;;;;;;;20.86;94.96;94093.09;5090816;28;20189;-46
2023/06/17 09:48:38;;;;;;;1.70;1.60;;;;;;;20.88;93.41;94089.25;5091026;28;20200;-48
2023/06/17 09:51:09;;;;;;;2.60;1.60;;;;;;;20.58;94.12;94019.00;5091327;28;20202;-46
2023/06/17 09:53:36;;;;;;;2.92;1.50;;;;;;;21.13;95.38;94088.41;5090975;28;20235;-48
2023/06/17 09:56:10;;;;;;;1.73;1.60;;;;;;;21.17;95.00;94089.56;5088117;28;20236;-45
2023/06/17 09:58:40;;;;;;;1.33;1.33;;;;;;;21.19;93.75;94093.50;5087972;28;20189;-48
2023/06/17 10:01:09;;;;;;;2.35;1.48;;;;;;;21.12;94.37;94098.00;5090441;28;20268;-46
2023/06/17 10:03:37;;;;;;;1.48;1.40;;;;;;;21.11;95.09;94093.78;5090868;28;20915;-48
2023/06/17 10:06:08;;;;;;;1.40;1.30;;;;;;;21.11;91.46;94104.19;5091021;28;20304;-47
2023/06/17 10:08:37;;;;;;;1.20;1.20;;;;;;;20.97;91.34;94093.16;5092284;28;20579;-47
2023/06/17 10:11:05;;;;;;;1.20;1.20;;;;;;;20.89;91.09;94108.25;5092450;28;20227;-45
2023/06/17 10:13:36;;;;;;;1.30;1.30;;;;;;;20.79;91.43;94100.94;5090646;28;20571;-47
2023/06/17 10:16:05;;;;;;;1.20;1.20;;;;;;;20.78;92.06;94105.34;5087996;28;20259;-45
2023/06/17 10:18:36;;;;;;;1.17;1.17;;;;;;;20.78;93.90;94104.56;5090659;28;20197;-43
2023/06/17 10:21:04;;;;;;;1.40;1.30;;;;;;;20.82;94.13;94099.72;5088560;28;20205;-46
2023/06/17 10:23:32;;;;;;;1.90;1.38;;;;;;;20.89;94.20;94106.44;5092153;28;20197;-47
2023/06/17 10:26:00;;;;;;;1.23;1.20;;;;;;;20.95;93.79;94108.19;5092790;28;20726;-43
2023/06/17 10:28:43;;;;;;;1.30;1.30;;;;;;;20.70;92.44;94081.44;5090995;28;20207;-44
2023/06/17 10:31:21;;;;;;;1.75;1.55;;;;;;;20.85;92.90;94110.47;5091453;28;20286;-47
2023/06/17 10:33:49;;;;;;;1.30;1.30;;;;;;;20.73;92.99;94115.59;5091098;28;20379;-47
2023/06/17 10:36:16;;;;;;;1.92;1.83;;;;;;;20.60;94.08;94113.13;5091774;28;20309;-45
2023/06/17 10:38:53;;;;;;;3.00;1.48;;;;;;;20.58;94.53;94117.72;5092054;28;20186;-50
2023/06/17 10:41:20;;;;;;;1.85;1.75;;;;;;;20.23;94.27;94081.03;5091097;28;20217;-49
2023/06/17 10:43:49;;;;;;;2.03;1.60;;;;;;;20.33;92.29;94085.72;5092029;28;20198;-47
2023/06/17 10:46:25;;;;;;;1.65;1.55;;;;;;;20.41;94.37;94120.03;5093529;28;20247;-44
2023/06/17 10:48:52;;;;;;;1.80;1.70;;;;;;;20.49;93.13;94114.59;5095399;28;20568;-45
2023/06/17 10:51:23;;;;;;;1.70;1.60;;;;;;;20.42;91.53;94116.44;5095636;28;20227;-46
2023/06/17 10:53:50;;;;;;;1.90;1.80;;;;;;;20.33;92.81;94127.28;5094964;28;20208;-44
2023/06/17 10:56:17;;;;;;;3.17;1.83;;;;;;;20.26;93.98;94117.75;5093922;28;20225;-46
2023/06/17 10:58:46;;;;;;;2.10;2.00;;;;;;;20.23;93.38;94123.38;5091073;28;20231;-49
2023/06/17 11:01:14;;;;;;;3.63;2.80;;;;;;;20.16;92.82;94127.00;5090288;28;20200;-47
2023/06/17 11:03:41;;;;;;;3.45;3.15;;;;;;;19.88;93.35;94099.66;5089308;28;20201;-45
2023/06/17 11:06:10;;;;;;;2.88;2.67;;;;;;;20.00;94.35;94126.53;5089515;28;20693;-46
2023/06/17 11:08:38;;;;;;;3.50;2.20;;;;;;;19.90;95.17;94130.56;5089712;28;20194;-47
2023/06/17 11:11:09;;;;;;;3.10;2.90;;;;;;;19.91;95.55;94132.19;5089594;28;20581;-46
2023/06/17 11:13:37;;;;;;;6.00;2.55;;;;;;;19.80;95.12;94129.22;5086327;28;20201;-46
2023/06/17 11:16:05;;;;;;;2.60;2.40;;;;;;;19.75;95.85;94128.25;5089293;28;20204;-44
2023/06/17 11:18:35;;;;;;;2.88;2.67;;;;;;;19.57;96.95;94133.31;5086374;28;20660;-45
2023/06/17 11:21:02;;;;;;;2.37;2.27;;;;;;;19.50;98.61;94131.53;5089251;28;20189;-44
2023/06/17 11:23:29;;;;;;;3.30;2.20;;;;;;;19.50;99.07;94136.72;5089105;28;20632;-45
2023/06/17 11:25:56;;;;;;;3.00;2.70;;;;;;;19.50;98.82;94139.31;5088841;28;20229;-47
2023/06/17 11:28:22;;;;;;;2.88;2.67;;;;;;;19.47;99.68;94133.75;5089096;28;20204;-47